sensor_id;sensor_type;location;lat;lon;timestamp;temperature;humidity
30069;DHT22;16894;49.456;10.644;2024-03-06T00:01:14;6.50;1.00
30069;DHT22;16894;49.456;10.644;2024-03-06T00:03:59;6.50;1.00
30069;DHT22;16894;49.456;10.644;2024-03-06T00:06:43;6.60;1.00
30069;DHT22;16894;49.456;10.644;2024-03-06T00:09:27;6.50;1.00
30069;DHT22;16894;49.456;10.644;2024-03-06T00:12:12;6.50;1.00
30069;DHT22;16894;49.456;10.644;2024-03-06T00:14:56;6.50;1.00
30069;DHT22;16894;49.456;10.644;2024-03-06T00:17:40;6.50;1.00
30069;DHT22;16894;49.456;10.644;2024-03-06T00:20:26;6.50;1.00
30069;DHT22;16894;49.456;10.644;2024-03-06T00:23:10;6.60;1.00
30069;DHT22;16894;49.456;10.644;2024-03-06T00:25:54;6.60;1.00
30069;DHT22;16894;49.456;10.644;2024-03-06T00:28:39;6.50;1.00
30069;DHT22;16894;49.456;10.644;2024-03-06T00:31:23;6.60;1.00
30069;DHT22;16894;49.456;10.644;2024-03-06T00:34:07;6.60;1.00
30069;DHT22;16894;49.456;10.644;2024-03-06T00:36:51;6.60;1.00
30069;DHT22;16894;49.456;10.644;2024-03-06T00:39:36;6.60;1.00
30069;DHT22;16894;49.456;10.644;2024-03-06T00:42:20;6.70;1.00
30069;DHT22;16894;49.456;10.644;2024-03-06T00:45:04;6.60;1.00
30069;DHT22;16894;49.456;10.644;2024-03-06T00:47:49;6.60;1.00
30069;DHT22;16894;49.456;10.644;2024-03-06T00:50:33;6.50;1.00
30069;DHT22;16894;49.456;10.644;2024-03-06T00:53:17;6.50;1.00
30069;DHT22;16894;49.456;10.644;2024-03-06T00:56:02;6.50;1.00
30069;DHT22;16894;49.456;10.644;2024-03-06T00:58:46;6.60;1.00
30069;DHT22;16894;49.456;10.644;2024-03-06T01:01:31;6.50;1.00
30069;DHT22;16894;49.456;10.644;2024-03-06T01:04:15;6.50;1.00
30069;DHT22;16894;49.456;10.644;2024-03-06T01:06:59;6.50;1.00
30069;DHT22;16894;49.456;10.644;2024-03-06T01:09:44;6.50;1.00
30069;DHT22;16894;49.456;10.644;2024-03-06T01:12:28;6.50;1.00
30069;DHT22;16894;49.456;10.644;2024-03-06T01:15:12;6.50;1.00
30069;DHT22;16894;49.456;10.644;2024-03-06T01:17:56;6.60;1.00
30069;DHT22;16894;49.456;10.644;2024-03-06T01:20:41;6.60;1.00
30069;DHT22;16894;49.456;10.644;2024-03-06T01:23:26;6.60;1.00
30069;DHT22;16894;49.456;10.644;2024-03-06T01:26:10;6.60;1.00
30069;DHT22;16894;49.456;10.644;2024-03-06T01:28:55;6.50;1.00
30069;DHT22;16894;49.456;10.644;2024-03-06T01:31:39;6.60;1.00
30069;DHT22;16894;49.456;10.644;2024-03-06T01:34:24;6.60;1.00
30069;DHT22;16894;49.456;10.644;2024-03-06T01:37:09;6.60;1.00
30069;DHT22;16894;49.456;10.644;2024-03-06T01:39:53;6.60;1.00
30069;DHT22;16894;49.456;10.644;2024-03-06T01:42:37;6.50;1.00
30069;DHT22;16894;49.456;10.644;2024-03-06T01:45:21;6.50;1.00
30069;DHT22;16894;49.456;10.644;2024-03-06T01:48:05;6.50;1.00
30069;DHT22;16894;49.456;10.644;2024-03-06T01:50:55;6.50;1.00
30069;DHT22;16894;49.456;10.644;2024-03-06T01:53:40;6.50;1.00
30069;DHT22;16894;49.456;10.644;2024-03-06T01:56:24;6.50;1.00
30069;DHT22;16894;49.456;10.644;2024-03-06T01:59:08;6.50;1.00
30069;DHT22;16894;49.456;10.644;2024-03-06T02:01:53;6.40;1.00
30069;DHT22;16894;49.456;10.644;2024-03-06T02:04:37;6.40;1.00
30069;DHT22;16894;49.456;10.644;2024-03-06T02:07:22;6.40;1.00
30069;DHT22;16894;49.456;10.644;2024-03-06T02:10:07;6.40;1.00
30069;DHT22;16894;49.456;10.644;2024-03-06T02:12:54;6.40;1.00
30069;DHT22;16894;49.456;10.644;2024-03-06T02:15:38;6.40;1.00
30069;DHT22;16894;49.456;10.644;2024-03-06T02:18:22;6.40;1.00
30069;DHT22;16894;49.456;10.644;2024-03-06T02:21:06;6.40;1.00
30069;DHT22;16894;49.456;10.644;2024-03-06T02:23:51;6.30;1.00
30069;DHT22;16894;49.456;10.644;2024-03-06T02:26:35;6.30;1.00
30069;DHT22;16894;49.456;10.644;2024-03-06T02:29:22;6.20;1.00
30069;DHT22;16894;49.456;10.644;2024-03-06T02:32:07;6.10;1.00
30069;DHT22;16894;49.456;10.644;2024-03-06T02:34:52;6.10;1.00
30069;DHT22;16894;49.456;10.644;2024-03-06T02:37:36;6.10;1.00
30069;DHT22;16894;49.456;10.644;2024-03-06T02:40:20;6.10;1.00
30069;DHT22;16894;49.456;10.644;2024-03-06T02:43:05;6.20;1.00
30069;DHT22;16894;49.456;10.644;2024-03-06T02:45:49;6.10;1.00
30069;DHT22;16894;49.456;10.644;2024-03-06T02:48:33;6.10;1.00
30069;DHT22;16894;49.456;10.644;2024-03-06T02:51:18;6.10;1.00
30069;DHT22;16894;49.456;10.644;2024-03-06T02:54:03;6.20;1.00
30069;DHT22;16894;49.456;10.644;2024-03-06T02:56:47;6.10;1.00
30069;DHT22;16894;49.456;10.644;2024-03-06T02:59:31;6.10;1.00
30069;DHT22;16894;49.456;10.644;2024-03-06T03:02:16;6.20;1.00
30069;DHT22;16894;49.456;10.644;2024-03-06T03:05:00;6.20;1.00
30069;DHT22;16894;49.456;10.644;2024-03-06T03:07:44;6.10;1.00
30069;DHT22;16894;49.456;10.644;2024-03-06T03:10:28;6.20;1.00
30069;DHT22;16894;49.456;10.644;2024-03-06T03:13:12;6.20;1.00
30069;DHT22;16894;49.456;10.644;2024-03-06T03:15:57;6.10;1.00
30069;DHT22;16894;49.456;10.644;2024-03-06T03:18:41;6.20;1.00
30069;DHT22;16894;49.456;10.644;2024-03-06T03:21:25;6.10;1.00
30069;DHT22;16894;49.456;10.644;2024-03-06T03:24:09;6.10;1.00
30069;DHT22;16894;49.456;10.644;2024-03-06T03:26:53;6.10;1.00
30069;DHT22;16894;49.456;10.644;2024-03-06T03:29:38;6.10;1.00
30069;DHT22;16894;49.456;10.644;2024-03-06T03:32:22;6.00;1.00
30069;DHT22;16894;49.456;10.644;2024-03-06T03:35:07;6.00;1.00
30069;DHT22;16894;49.456;10.644;2024-03-06T03:37:51;6.00;1.00
30069;DHT22;16894;49.456;10.644;2024-03-06T03:40:36;5.90;3.10
30069;DHT22;16894;49.456;10.644;2024-03-06T03:43:20;6.00;6.60
30069;DHT22;16894;49.456;10.644;2024-03-06T03:46:05;6.10;1.40
30069;DHT22;16894;49.456;10.644;2024-03-06T03:48:50;6.10;1.00
30069;DHT22;16894;49.456;10.644;2024-03-06T03:51:35;6.10;1.00
30069;DHT22;16894;49.456;10.644;2024-03-06T03:54:19;6.00;1.00
30069;DHT22;16894;49.456;10.644;2024-03-06T03:57:03;6.00;1.00
30069;DHT22;16894;49.456;10.644;2024-03-06T03:59:47;6.10;1.00
30069;DHT22;16894;49.456;10.644;2024-03-06T04:02:32;6.10;1.00
30069;DHT22;16894;49.456;10.644;2024-03-06T04:05:16;6.10;1.00
30069;DHT22;16894;49.456;10.644;2024-03-06T04:08:00;6.10;1.00
30069;DHT22;16894;49.456;10.644;2024-03-06T04:10:44;6.10;1.00
30069;DHT22;16894;49.456;10.644;2024-03-06T04:13:28;6.10;1.00
30069;DHT22;16894;49.456;10.644;2024-03-06T04:16:16;6.10;1.00
30069;DHT22;16894;49.456;10.644;2024-03-06T04:19:01;6.10;1.00
30069;DHT22;16894;49.456;10.644;2024-03-06T04:21:45;6.10;1.00
30069;DHT22;16894;49.456;10.644;2024-03-06T04:24:29;6.10;1.00
30069;DHT22;16894;49.456;10.644;2024-03-06T04:27:13;6.10;1.00
30069;DHT22;16894;49.456;10.644;2024-03-06T04:29:59;6.10;1.00
30069;DHT22;16894;49.456;10.644;2024-03-06T04:32:43;6.10;1.00
30069;DHT22;16894;49.456;10.644;2024-03-06T04:35:28;6.00;1.00
30069;DHT22;16894;49.456;10.644;2024-03-06T04:38:13;6.00;1.00
30069;DHT22;16894;49.456;10.644;2024-03-06T04:40:57;5.90;1.00
30069;DHT22;16894;49.456;10.644;2024-03-06T04:43:41;5.90;3.20
30069;DHT22;16894;49.456;10.644;2024-03-06T04:46:26;5.90;1.00
30069;DHT22;16894;49.456;10.644;2024-03-06T04:49:10;5.90;12.30
30069;DHT22;16894;49.456;10.644;2024-03-06T04:51:54;5.90;8.00
30069;DHT22;16894;49.456;10.644;2024-03-06T04:54:39;5.90;8.50
30069;DHT22;16894;49.456;10.644;2024-03-06T04:57:23;5.90;1.20
30069;DHT22;16894;49.456;10.644;2024-03-06T05:00:07;5.90;1.00
30069;DHT22;16894;49.456;10.644;2024-03-06T05:02:52;5.90;1.00
30069;DHT22;16894;49.456;10.644;2024-03-06T05:05:36;5.90;1.00
30069;DHT22;16894;49.456;10.644;2024-03-06T05:08:20;5.90;1.00
30069;DHT22;16894;49.456;10.644;2024-03-06T05:11:04;5.90;1.60
30069;DHT22;16894;49.456;10.644;2024-03-06T05:13:49;5.90;1.00
30069;DHT22;16894;49.456;10.644;2024-03-06T05:16:33;6.00;13.10
30069;DHT22;16894;49.456;10.644;2024-03-06T05:19:18;6.00;10.50
30069;DHT22;16894;49.456;10.644;2024-03-06T05:22:03;6.00;4.70
30069;DHT22;16894;49.456;10.644;2024-03-06T05:24:47;6.00;3.70
30069;DHT22;16894;49.456;10.644;2024-03-06T05:27:31;6.00;7.00
30069;DHT22;16894;49.456;10.644;2024-03-06T05:30:16;5.90;5.40
30069;DHT22;16894;49.456;10.644;2024-03-06T05:33:00;6.00;10.90
30069;DHT22;16894;49.456;10.644;2024-03-06T05:35:44;6.00;15.50
30069;DHT22;16894;49.456;10.644;2024-03-06T05:38:28;6.00;6.50
30069;DHT22;16894;49.456;10.644;2024-03-06T05:41:13;6.10;10.00
30069;DHT22;16894;49.456;10.644;2024-03-06T05:43:57;6.10;1.00
30069;DHT22;16894;49.456;10.644;2024-03-06T05:46:41;6.00;6.00
30069;DHT22;16894;49.456;10.644;2024-03-06T05:49:25;6.10;10.80
30069;DHT22;16894;49.456;10.644;2024-03-06T05:52:10;6.00;4.10
30069;DHT22;16894;49.456;10.644;2024-03-06T05:54:54;6.10;3.40
30069;DHT22;16894;49.456;10.644;2024-03-06T05:57:39;6.10;5.00
30069;DHT22;16894;49.456;10.644;2024-03-06T06:00:23;6.10;3.50
30069;DHT22;16894;49.456;10.644;2024-03-06T06:03:07;6.10;1.00
30069;DHT22;16894;49.456;10.644;2024-03-06T06:05:52;6.10;8.10
30069;DHT22;16894;49.456;10.644;2024-03-06T06:08:36;6.10;7.10
30069;DHT22;16894;49.456;10.644;2024-03-06T06:11:20;6.20;10.20
30069;DHT22;16894;49.456;10.644;2024-03-06T06:14:04;6.20;7.80
30069;DHT22;16894;49.456;10.644;2024-03-06T06:16:49;6.20;13.90
30069;DHT22;16894;49.456;10.644;2024-03-06T06:19:34;6.20;11.70
30069;DHT22;16894;49.456;10.644;2024-03-06T06:22:18;6.20;8.30
30069;DHT22;16894;49.456;10.644;2024-03-06T06:25:02;6.30;3.40
30069;DHT22;16894;49.456;10.644;2024-03-06T06:27:47;6.30;1.40
30069;DHT22;16894;49.456;10.644;2024-03-06T06:30:33;6.30;4.40
30069;DHT22;16894;49.456;10.644;2024-03-06T06:33:20;6.40;1.00
30069;DHT22;16894;49.456;10.644;2024-03-06T06:36:07;6.40;1.00
30069;DHT22;16894;49.456;10.644;2024-03-06T06:38:52;6.30;2.50
30069;DHT22;16894;49.456;10.644;2024-03-06T06:41:36;6.40;4.30
30069;DHT22;16894;49.456;10.644;2024-03-06T06:44:21;6.40;1.70
30069;DHT22;16894;49.456;10.644;2024-03-06T06:47:05;6.40;8.80
30069;DHT22;16894;49.456;10.644;2024-03-06T06:49:50;6.40;4.90
30069;DHT22;16894;49.456;10.644;2024-03-06T06:52:35;6.50;6.20
30069;DHT22;16894;49.456;10.644;2024-03-06T06:55:19;6.50;1.10
30069;DHT22;16894;49.456;10.644;2024-03-06T06:58:06;6.50;11.60
30069;DHT22;16894;49.456;10.644;2024-03-06T07:00:50;6.60;14.10
30069;DHT22;16894;49.456;10.644;2024-03-06T07:03:34;6.60;1.30
30069;DHT22;16894;49.456;10.644;2024-03-06T07:06:19;6.60;11.80
30069;DHT22;16894;49.456;10.644;2024-03-06T07:09:03;6.50;11.20
30069;DHT22;16894;49.456;10.644;2024-03-06T07:11:49;6.50;13.00
30069;DHT22;16894;49.456;10.644;2024-03-06T07:14:34;6.50;15.40
30069;DHT22;16894;49.456;10.644;2024-03-06T07:17:18;6.50;22.70
30069;DHT22;16894;49.456;10.644;2024-03-06T07:20:02;6.70;23.70
30069;DHT22;16894;49.456;10.644;2024-03-06T07:22:49;6.70;9.20
30069;DHT22;16894;49.456;10.644;2024-03-06T07:25:34;6.70;24.20
30069;DHT22;16894;49.456;10.644;2024-03-06T07:28:19;6.80;19.20
30069;DHT22;16894;49.456;10.644;2024-03-06T07:31:04;6.90;19.00
30069;DHT22;16894;49.456;10.644;2024-03-06T07:33:49;6.90;16.30
30069;DHT22;16894;49.456;10.644;2024-03-06T07:36:34;6.90;18.30
30069;DHT22;16894;49.456;10.644;2024-03-06T07:39:19;6.90;15.50
30069;DHT22;16894;49.456;10.644;2024-03-06T07:42:03;6.90;15.20
30069;DHT22;16894;49.456;10.644;2024-03-06T07:44:48;7.00;20.70
30069;DHT22;16894;49.456;10.644;2024-03-06T07:47:32;7.00;13.50
30069;DHT22;16894;49.456;10.644;2024-03-06T07:50:16;7.10;17.50
30069;DHT22;16894;49.456;10.644;2024-03-06T07:53:03;7.10;19.20
30069;DHT22;16894;49.456;10.644;2024-03-06T07:55:47;7.20;6.20
30069;DHT22;16894;49.456;10.644;2024-03-06T07:58:31;7.20;10.70
30069;DHT22;16894;49.456;10.644;2024-03-06T08:01:15;7.20;6.60
30069;DHT22;16894;49.456;10.644;2024-03-06T08:03:59;7.30;1.00
30069;DHT22;16894;49.456;10.644;2024-03-06T08:06:44;7.30;1.00
30069;DHT22;16894;49.456;10.644;2024-03-06T08:09:28;7.40;1.00
30069;DHT22;16894;49.456;10.644;2024-03-06T08:12:12;7.40;1.00
30069;DHT22;16894;49.456;10.644;2024-03-06T08:14:57;7.50;1.00
30069;DHT22;16894;49.456;10.644;2024-03-06T08:17:42;7.50;1.00
30069;DHT22;16894;49.456;10.644;2024-03-06T08:20:26;7.60;1.00
30069;DHT22;16894;49.456;10.644;2024-03-06T08:23:11;7.70;1.00
30069;DHT22;16894;49.456;10.644;2024-03-06T08:25:55;7.70;1.00
30069;DHT22;16894;49.456;10.644;2024-03-06T08:28:40;7.70;1.00
30069;DHT22;16894;49.456;10.644;2024-03-06T08:31:24;7.80;1.00
30069;DHT22;16894;49.456;10.644;2024-03-06T08:34:09;7.80;1.00
30069;DHT22;16894;49.456;10.644;2024-03-06T08:36:53;7.90;1.00
30069;DHT22;16894;49.456;10.644;2024-03-06T08:39:39;8.00;1.00
30069;DHT22;16894;49.456;10.644;2024-03-06T08:42:25;7.90;1.00
30069;DHT22;16894;49.456;10.644;2024-03-06T08:45:09;8.00;1.00
30069;DHT22;16894;49.456;10.644;2024-03-06T08:47:54;8.00;1.00
30069;DHT22;16894;49.456;10.644;2024-03-06T08:50:38;8.00;1.00
30069;DHT22;16894;49.456;10.644;2024-03-06T08:53:23;8.00;99.90
30069;DHT22;16894;49.456;10.644;2024-03-06T08:56:07;8.00;1.00
30069;DHT22;16894;49.456;10.644;2024-03-06T08:58:51;8.00;1.00
30069;DHT22;16894;49.456;10.644;2024-03-06T09:01:35;8.00;99.90
30069;DHT22;16894;49.456;10.644;2024-03-06T09:04:20;8.10;99.90
30069;DHT22;16894;49.456;10.644;2024-03-06T09:07:04;8.10;99.90
30069;DHT22;16894;49.456;10.644;2024-03-06T09:09:48;8.20;99.90
30069;DHT22;16894;49.456;10.644;2024-03-06T09:12:32;8.20;99.90
30069;DHT22;16894;49.456;10.644;2024-03-06T09:15:17;8.30;99.90
30069;DHT22;16894;49.456;10.644;2024-03-06T09:18:02;8.20;99.90
30069;DHT22;16894;49.456;10.644;2024-03-06T09:20:47;8.20;99.90
30069;DHT22;16894;49.456;10.644;2024-03-06T09:23:31;8.30;99.90
30069;DHT22;16894;49.456;10.644;2024-03-06T09:26:16;8.40;99.90
30069;DHT22;16894;49.456;10.644;2024-03-06T09:29:00;8.40;99.90
30069;DHT22;16894;49.456;10.644;2024-03-06T09:31:45;8.40;99.90
30069;DHT22;16894;49.456;10.644;2024-03-06T09:34:30;8.40;99.90
30069;DHT22;16894;49.456;10.644;2024-03-06T09:37:14;8.50;99.90
30069;DHT22;16894;49.456;10.644;2024-03-06T09:39:58;8.50;99.90
30069;DHT22;16894;49.456;10.644;2024-03-06T09:42:43;8.50;99.90
30069;DHT22;16894;49.456;10.644;2024-03-06T09:45:27;8.60;99.90
30069;DHT22;16894;49.456;10.644;2024-03-06T09:48:12;8.70;99.90
30069;DHT22;16894;49.456;10.644;2024-03-06T09:50:57;8.80;13.60
30069;DHT22;16894;49.456;10.644;2024-03-06T09:53:44;8.80;22.20
30069;DHT22;16894;49.456;10.644;2024-03-06T09:56:28;8.90;1.50
30069;DHT22;16894;49.456;10.644;2024-03-06T09:59:12;9.00;44.70
30069;DHT22;16894;49.456;10.644;2024-03-06T10:01:57;9.10;41.10
30069;DHT22;16894;49.456;10.644;2024-03-06T10:04:42;9.10;1.00
30069;DHT22;16894;49.456;10.644;2024-03-06T10:07:26;9.20;99.90
30069;DHT22;16894;49.456;10.644;2024-03-06T10:10:11;9.30;99.90
30069;DHT22;16894;49.456;10.644;2024-03-06T10:12:55;9.40;99.90
30069;DHT22;16894;49.456;10.644;2024-03-06T10:15:41;9.50;1.00
30069;DHT22;16894;49.456;10.644;2024-03-06T10:18:29;9.60;99.90
30069;DHT22;16894;49.456;10.644;2024-03-06T10:21:14;9.60;99.90
30069;DHT22;16894;49.456;10.644;2024-03-06T10:23:58;9.70;31.30
30069;DHT22;16894;49.456;10.644;2024-03-06T10:26:43;9.70;99.90
30069;DHT22;16894;49.456;10.644;2024-03-06T10:29:28;9.70;99.90
30069;DHT22;16894;49.456;10.644;2024-03-06T10:32:16;9.70;99.90
30069;DHT22;16894;49.456;10.644;2024-03-06T10:35:02;9.60;99.90
30069;DHT22;16894;49.456;10.644;2024-03-06T10:37:47;9.60;99.90
30069;DHT22;16894;49.456;10.644;2024-03-06T10:40:32;9.50;99.90
30069;DHT22;16894;49.456;10.644;2024-03-06T10:43:17;9.50;56.20
30069;DHT22;16894;49.456;10.644;2024-03-06T10:46:03;9.40;1.00
30069;DHT22;16894;49.456;10.644;2024-03-06T10:48:49;9.40;99.90
30069;DHT22;16894;49.456;10.644;2024-03-06T10:51:33;9.30;99.90
30069;DHT22;16894;49.456;10.644;2024-03-06T10:54:19;9.30;8.50
30069;DHT22;16894;49.456;10.644;2024-03-06T10:57:03;9.30;99.90
30069;DHT22;16894;49.456;10.644;2024-03-06T10:59:48;9.30;99.90
30069;DHT22;16894;49.456;10.644;2024-03-06T11:02:33;9.30;99.90
30069;DHT22;16894;49.456;10.644;2024-03-06T11:05:19;9.50;99.90
30069;DHT22;16894;49.456;10.644;2024-03-06T11:08:03;9.50;99.90
30069;DHT22;16894;49.456;10.644;2024-03-06T11:10:47;9.70;99.90
30069;DHT22;16894;49.456;10.644;2024-03-06T11:13:32;9.70;24.90
30069;DHT22;16894;49.456;10.644;2024-03-06T11:16:18;9.70;6.40
30069;DHT22;16894;49.456;10.644;2024-03-06T11:19:09;9.70;99.90
30069;DHT22;16894;49.456;10.644;2024-03-06T11:21:53;9.70;99.90
30069;DHT22;16894;49.456;10.644;2024-03-06T11:24:37;9.80;99.90
30069;DHT22;16894;49.456;10.644;2024-03-06T11:27:22;9.80;99.90
30069;DHT22;16894;49.456;10.644;2024-03-06T11:30:09;10.00;99.90
30069;DHT22;16894;49.456;10.644;2024-03-06T11:33:00;10.10;99.90
30069;DHT22;16894;49.456;10.644;2024-03-06T11:44:27;10.00;99.90
30069;DHT22;16894;49.456;10.644;2024-03-06T11:47:13;9.90;99.90
30069;DHT22;16894;49.456;10.644;2024-03-06T11:49:59;9.80;99.90
30069;DHT22;16894;49.456;10.644;2024-03-06T11:52:43;9.70;99.90
30069;DHT22;16894;49.456;10.644;2024-03-06T11:55:27;9.70;99.90
30069;DHT22;16894;49.456;10.644;2024-03-06T11:58:11;9.70;99.90
30069;DHT22;16894;49.456;10.644;2024-03-06T12:00:56;9.70;99.90
30069;DHT22;16894;49.456;10.644;2024-03-06T12:03:41;9.60;1.00
30069;DHT22;16894;49.456;10.644;2024-03-06T12:06:26;9.60;99.90
30069;DHT22;16894;49.456;10.644;2024-03-06T12:09:10;9.60;35.90
30069;DHT22;16894;49.456;10.644;2024-03-06T12:11:55;9.70;99.90
30069;DHT22;16894;49.456;10.644;2024-03-06T12:14:40;9.70;96.10
30069;DHT22;16894;49.456;10.644;2024-03-06T12:17:25;9.70;99.90
30069;DHT22;16894;49.456;10.644;2024-03-06T12:20:12;9.70;99.90
30069;DHT22;16894;49.456;10.644;2024-03-06T12:22:59;9.80;99.90
30069;DHT22;16894;49.456;10.644;2024-03-06T12:25:43;9.80;99.90
30069;DHT22;16894;49.456;10.644;2024-03-06T12:28:28;9.80;99.90
30069;DHT22;16894;49.456;10.644;2024-03-06T12:31:12;9.80;99.90
30069;DHT22;16894;49.456;10.644;2024-03-06T12:33:57;9.80;1.00
30069;DHT22;16894;49.456;10.644;2024-03-06T12:36:46;9.70;99.90
30069;DHT22;16894;49.456;10.644;2024-03-06T12:39:31;9.80;99.90
30069;DHT22;16894;49.456;10.644;2024-03-06T12:42:17;9.70;99.90
30069;DHT22;16894;49.456;10.644;2024-03-06T12:45:01;9.80;99.90
30069;DHT22;16894;49.456;10.644;2024-03-06T12:47:47;9.80;99.90
30069;DHT22;16894;49.456;10.644;2024-03-06T12:50:34;9.80;1.00
30069;DHT22;16894;49.456;10.644;2024-03-06T12:53:18;9.90;99.90
30069;DHT22;16894;49.456;10.644;2024-03-06T12:56:03;9.90;99.90
30069;DHT22;16894;49.456;10.644;2024-03-06T12:58:47;9.90;99.90
30069;DHT22;16894;49.456;10.644;2024-03-06T13:01:32;9.70;99.90
30069;DHT22;16894;49.456;10.644;2024-03-06T13:04:16;9.60;1.00
30069;DHT22;16894;49.456;10.644;2024-03-06T13:07:00;9.50;1.00
30069;DHT22;16894;49.456;10.644;2024-03-06T13:09:44;9.50;26.60
30069;DHT22;16894;49.456;10.644;2024-03-06T13:12:29;9.50;99.90
30069;DHT22;16894;49.456;10.644;2024-03-06T13:15:13;9.50;65.70
30069;DHT22;16894;49.456;10.644;2024-03-06T13:17:57;9.40;1.00
30069;DHT22;16894;49.456;10.644;2024-03-06T13:20:42;9.50;99.90
30069;DHT22;16894;49.456;10.644;2024-03-06T13:23:26;9.70;99.90
30069;DHT22;16894;49.456;10.644;2024-03-06T13:26:10;9.90;99.90
30069;DHT22;16894;49.456;10.644;2024-03-06T13:28:57;10.10;1.00
30069;DHT22;16894;49.456;10.644;2024-03-06T13:31:41;10.30;99.90
30069;DHT22;16894;49.456;10.644;2024-03-06T13:34:25;10.30;99.90
30069;DHT22;16894;49.456;10.644;2024-03-06T13:37:09;10.60;99.90
30069;DHT22;16894;49.456;10.644;2024-03-06T13:39:54;11.20;99.90
30069;DHT22;16894;49.456;10.644;2024-03-06T13:42:42;12.10;99.90
30069;DHT22;16894;49.456;10.644;2024-03-06T13:45:26;12.40;99.90
30069;DHT22;16894;49.456;10.644;2024-03-06T13:48:14;12.40;99.90
30069;DHT22;16894;49.456;10.644;2024-03-06T13:51:02;12.60;99.90
30069;DHT22;16894;49.456;10.644;2024-03-06T13:53:46;13.30;1.00
30069;DHT22;16894;49.456;10.644;2024-03-06T13:56:30;13.00;99.90
30069;DHT22;16894;49.456;10.644;2024-03-06T13:59:14;12.10;99.90
30069;DHT22;16894;49.456;10.644;2024-03-06T14:01:59;11.60;99.90
30069;DHT22;16894;49.456;10.644;2024-03-06T14:04:43;11.10;1.00
30069;DHT22;16894;49.456;10.644;2024-03-06T14:07:28;10.80;99.90
30069;DHT22;16894;49.456;10.644;2024-03-06T14:10:12;10.60;99.90
30069;DHT22;16894;49.456;10.644;2024-03-06T14:12:56;10.50;99.90
30069;DHT22;16894;49.456;10.644;2024-03-06T14:15:41;10.40;99.90
30069;DHT22;16894;49.456;10.644;2024-03-06T14:18:25;10.40;99.90
30069;DHT22;16894;49.456;10.644;2024-03-06T14:21:10;10.50;99.90
30069;DHT22;16894;49.456;10.644;2024-03-06T14:23:54;10.50;99.90
30069;DHT22;16894;49.456;10.644;2024-03-06T14:26:38;10.70;99.90
30069;DHT22;16894;49.456;10.644;2024-03-06T14:29:23;10.70;99.90
30069;DHT22;16894;49.456;10.644;2024-03-06T14:32:07;10.70;99.90
30069;DHT22;16894;49.456;10.644;2024-03-06T14:34:51;10.80;59.70
30069;DHT22;16894;49.456;10.644;2024-03-06T14:37:35;10.90;59.20
30069;DHT22;16894;49.456;10.644;2024-03-06T14:40:19;11.00;2.70
30069;DHT22;16894;49.456;10.644;2024-03-06T14:43:04;11.10;1.00
30069;DHT22;16894;49.456;10.644;2024-03-06T14:45:53;11.20;1.00
30069;DHT22;16894;49.456;10.644;2024-03-06T14:48:37;11.30;99.90
30069;DHT22;16894;49.456;10.644;2024-03-06T14:51:21;11.30;99.90
30069;DHT22;16894;49.456;10.644;2024-03-06T14:54:06;11.20;99.90
30069;DHT22;16894;49.456;10.644;2024-03-06T14:56:50;11.20;99.90
30069;DHT22;16894;49.456;10.644;2024-03-06T14:59:34;11.00;99.90
30069;DHT22;16894;49.456;10.644;2024-03-06T15:02:19;10.80;99.90
30069;DHT22;16894;49.456;10.644;2024-03-06T15:05:03;10.70;99.90
30069;DHT22;16894;49.456;10.644;2024-03-06T15:07:48;10.70;99.90
30069;DHT22;16894;49.456;10.644;2024-03-06T15:10:32;10.60;99.90
30069;DHT22;16894;49.456;10.644;2024-03-06T15:13:16;10.40;99.90
30069;DHT22;16894;49.456;10.644;2024-03-06T15:16:02;10.30;99.90
30069;DHT22;16894;49.456;10.644;2024-03-06T15:18:50;10.20;1.00
30069;DHT22;16894;49.456;10.644;2024-03-06T15:21:36;10.20;12.30
30069;DHT22;16894;49.456;10.644;2024-03-06T15:24:20;10.20;59.20
30069;DHT22;16894;49.456;10.644;2024-03-06T15:27:04;10.20;99.50
30069;DHT22;16894;49.456;10.644;2024-03-06T15:29:49;10.20;99.90
30069;DHT22;16894;49.456;10.644;2024-03-06T15:32:33;10.30;99.90
30069;DHT22;16894;49.456;10.644;2024-03-06T15:35:18;10.20;99.90
30069;DHT22;16894;49.456;10.644;2024-03-06T15:38:02;10.30;99.90
30069;DHT22;16894;49.456;10.644;2024-03-06T15:40:47;10.20;99.90
30069;DHT22;16894;49.456;10.644;2024-03-06T15:43:34;10.10;99.90
30069;DHT22;16894;49.456;10.644;2024-03-06T15:46:18;10.10;99.90
30069;DHT22;16894;49.456;10.644;2024-03-06T15:49:18;10.10;99.90
30069;DHT22;16894;49.456;10.644;2024-03-06T15:52:04;10.00;99.90
30069;DHT22;16894;49.456;10.644;2024-03-06T15:54:48;9.90;99.90
30069;DHT22;16894;49.456;10.644;2024-03-06T15:57:32;9.90;99.90
30069;DHT22;16894;49.456;10.644;2024-03-06T16:00:17;9.80;1.00
30069;DHT22;16894;49.456;10.644;2024-03-06T16:03:01;9.80;51.90
30069;DHT22;16894;49.456;10.644;2024-03-06T16:05:45;9.80;99.90
30069;DHT22;16894;49.456;10.644;2024-03-06T16:08:30;9.80;79.70
30069;DHT22;16894;49.456;10.644;2024-03-06T16:11:14;9.80;1.00
30069;DHT22;16894;49.456;10.644;2024-03-06T16:13:58;9.70;99.90
30069;DHT22;16894;49.456;10.644;2024-03-06T16:16:44;9.70;99.90
30069;DHT22;16894;49.456;10.644;2024-03-06T16:19:28;9.60;99.90
30069;DHT22;16894;49.456;10.644;2024-03-06T16:22:13;9.60;99.90
30069;DHT22;16894;49.456;10.644;2024-03-06T16:24:57;9.60;99.90
30069;DHT22;16894;49.456;10.644;2024-03-06T16:27:41;9.60;99.90
30069;DHT22;16894;49.456;10.644;2024-03-06T16:30:26;9.50;99.90
30069;DHT22;16894;49.456;10.644;2024-03-06T16:33:10;9.50;93.40
30069;DHT22;16894;49.456;10.644;2024-03-06T16:35:54;9.50;7.70
30069;DHT22;16894;49.456;10.644;2024-03-06T16:38:38;9.50;99.90
30069;DHT22;16894;49.456;10.644;2024-03-06T16:41:23;9.40;99.90
30069;DHT22;16894;49.456;10.644;2024-03-06T16:44:07;9.40;99.90
30069;DHT22;16894;49.456;10.644;2024-03-06T16:46:51;9.40;99.90
30069;DHT22;16894;49.456;10.644;2024-03-06T16:49:36;9.30;61.70
30069;DHT22;16894;49.456;10.644;2024-03-06T16:52:20;9.30;99.90
30069;DHT22;16894;49.456;10.644;2024-03-06T16:55:07;9.30;99.90
30069;DHT22;16894;49.456;10.644;2024-03-06T16:57:51;9.30;99.90
30069;DHT22;16894;49.456;10.644;2024-03-06T17:00:36;9.20;1.00
30069;DHT22;16894;49.456;10.644;2024-03-06T17:03:20;9.10;29.10
30069;DHT22;16894;49.456;10.644;2024-03-06T17:06:04;9.00;1.00
30069;DHT22;16894;49.456;10.644;2024-03-06T17:08:48;9.00;99.90
30069;DHT22;16894;49.456;10.644;2024-03-06T17:11:32;9.00;1.00
30069;DHT22;16894;49.456;10.644;2024-03-06T17:14:17;9.00;1.00
30069;DHT22;16894;49.456;10.644;2024-03-06T17:17:01;8.90;68.90
30069;DHT22;16894;49.456;10.644;2024-03-06T17:19:46;8.90;16.60
30069;DHT22;16894;49.456;10.644;2024-03-06T17:22:31;8.90;94.40
30069;DHT22;16894;49.456;10.644;2024-03-06T17:25:15;8.80;99.90
30069;DHT22;16894;49.456;10.644;2024-03-06T17:28:02;8.80;99.90
30069;DHT22;16894;49.456;10.644;2024-03-06T17:30:46;8.70;39.50
30069;DHT22;16894;49.456;10.644;2024-03-06T17:33:31;8.70;12.30
30069;DHT22;16894;49.456;10.644;2024-03-06T17:36:15;8.60;99.90